Time;durP1;ratioP1;P1;durP2;ratioP2;P2;SDS_P1;SDS_P2;PMS_P1;PMS_P2;Temp;Humidity;BMP_temperature;BMP_pressure;BME280_temperature;BME280_humidity;BME280_pressure;Samples;Min_cycle;Max_cycle;Signal;HPM_P1;HPM_P2
2021/06/23 00:04:51;;;;;;;7.10;1.95;;;14.10;99.90;;;;;;20901655;28;20768;-51
2021/06/23 00:14:52;;;;;;;4.30;1.65;;;13.90;99.90;;;;;;20896680;28;20045;-51
2021/06/23 00:24:54;;;;;;;3.03;1.77;;;13.90;99.90;;;;;;20917139;28;20496;-49
2021/06/23 00:34:55;;;;;;;5.82;1.90;;;13.80;99.90;;;;;;20901479;28;20594;-51
2021/06/23 00:44:56;;;;;;;3.22;1.30;;;13.80;99.90;;;;;;20915756;28;20300;-51
2021/06/23 00:54:58;;;;;;;3.67;1.90;;;13.80;99.90;;;;;;20910132;28;20472;-49
2021/06/23 01:04:59;;;;;;;3.70;1.73;;;13.60;99.90;;;;;;20918632;28;20045;-49
2021/06/23 01:15:01;;;;;;;10.55;2.13;;;13.50;99.90;;;;;;20910075;28;20056;-49
2021/06/23 01:25:03;;;;;;;3.72;2.08;;;13.50;99.90;;;;;;20902302;28;20597;-49
2021/06/23 01:35:06;;;;;;;3.20;1.50;;;13.60;99.90;;;;;;20887653;28;20668;-49
2021/06/23 01:45:08;;;;;;;4.20;1.35;;;13.50;99.90;;;;;;20895711;28;20052;-49
2021/06/23 01:55:26;;;;;;;6.47;1.67;;;13.40;99.90;;;;;;20916738;28;20520;-49
2021/06/23 02:05:45;;;;;;;4.93;1.92;;;13.40;99.90;;;;;;20908286;28;20045;-49
2021/06/23 02:15:48;;;;;;;4.85;1.98;;;13.40;99.90;;;;;;20913370;28;20547;-49
2021/06/23 02:25:50;;;;;;;3.65;1.80;;;13.30;99.90;;;;;;20881553;28;20143;-49
2021/06/23 02:35:55;;;;;;;3.17;1.40;;;13.40;99.90;;;;;;20902568;28;20732;-49
2021/06/23 02:45:57;;;;;;;4.78;2.13;;;13.40;99.90;;;;;;20888864;28;20559;-50
2021/06/23 02:56:00;;;;;;;6.00;1.58;;;13.30;99.90;;;;;;20893803;28;20045;-50
2021/06/23 03:06:02;;;;;;;3.50;1.50;;;13.30;99.90;;;;;;20906980;28;20492;-50
2021/06/23 03:16:04;;;;;;;4.63;1.75;;;13.30;99.90;;;;;;20905974;28;20566;-50
2021/06/23 03:26:06;;;;;;;4.28;2.15;;;13.20;99.90;;;;;;20907819;28;20535;-50
2021/06/23 03:36:07;;;;;;;3.92;1.80;;;12.90;99.90;;;;;;20917831;28;20696;-50
2021/06/23 03:46:08;;;;;;;4.25;1.88;;;12.90;99.90;;;;;;20924529;28;20403;-50
2021/06/23 03:56:09;;;;;;;5.63;1.88;;;12.90;99.90;;;;;;20919909;28;20503;-50
2021/06/23 04:06:10;;;;;;;3.13;1.40;;;13.00;99.90;;;;;;20901174;28;20524;-50
2021/06/23 04:16:12;;;;;;;3.65;1.65;;;13.10;99.90;;;;;;20903656;28;20651;-49
2021/06/23 04:26:13;;;;;;;2.75;1.25;;;13.20;99.90;;;;;;20899061;28;20044;-51
2021/06/23 04:36:15;;;;;;;3.72;1.42;;;13.20;99.90;;;;;;20907001;28;20044;-50
2021/06/23 04:46:16;;;;;;;3.58;1.90;;;13.20;99.90;;;;;;20910043;28;20061;-51
2021/06/23 04:56:17;;;;;;;2.85;1.45;;;13.30;99.90;;;;;;20905300;28;20416;-50
2021/06/23 05:06:18;;;;;;;3.45;1.35;;;13.50;99.90;;;;;;20914442;28;20072;-51
2021/06/23 05:16:19;;;;;;;3.50;1.45;;;13.50;99.90;;;;;;20904460;28;20114;-51
2021/06/23 05:26:20;;;;;;;4.85;1.48;;;13.40;99.90;;;;;;20927187;28;20583;-51
2021/06/23 05:36:21;;;;;;;2.28;0.82;;;13.30;99.90;;;;;;20876411;28;20289;-51
2021/06/23 05:46:23;;;;;;;2.40;1.13;;;13.40;99.90;;;;;;20903986;28;20754;-51
2021/06/23 05:56:24;;;;;;;4.25;1.58;;;13.40;99.90;;;;;;20915404;28;20500;-51
2021/06/23 06:06:25;;;;;;;6.55;1.08;;;13.40;99.90;;;;;;20904820;28;20558;-51
2021/06/23 06:16:26;;;;;;;1.40;0.70;;;13.50;99.90;;;;;;20922947;28;20037;-51
2021/06/23 06:26:29;;;;;;;1.88;0.95;;;13.60;99.90;;;;;;20903813;28;20373;-50
2021/06/23 06:36:30;;;;;;;1.50;0.75;;;13.80;99.90;;;;;;20901788;28;20524;-51
2021/06/23 06:46:32;;;;;;;3.22;1.08;;;13.70;99.90;;;;;;20898631;28;20435;-51
2021/06/23 06:56:33;;;;;;;2.47;1.08;;;13.90;99.90;;;;;;20902658;28;20056;-51
2021/06/23 07:06:34;;;;;;;1.73;0.90;;;14.00;99.90;;;;;;20905822;28;20492;-50
2021/06/23 07:16:36;;;;;;;2.63;0.93;;;14.00;99.90;;;;;;20903311;28;20051;-50
2021/06/23 07:26:37;;;;;;;7.22;1.60;;;14.20;99.90;;;;;;20908650;28;20051;-50
2021/06/23 07:36:56;;;;;;;3.63;1.27;;;14.10;99.90;;;;;;20904915;28;20041;-49
2021/06/23 07:47:00;;;;;;;2.03;0.75;;;14.10;99.90;;;;;;20913928;28;20063;-50
2021/06/23 08:17:34;;;;;;;2.70;0.55;;;15.30;99.90;;;;;;20911446;28;20388;-50
2021/06/23 08:27:35;;;;;;;1.80;1.00;;;15.00;99.90;;;;;;20915683;28;20044;-50
2021/06/23 08:37:37;;;;;;;5.55;1.17;;;14.70;99.90;;;;;;20919980;28;21657;-50
2021/06/23 08:47:46;;;;;;;1.83;0.73;;;14.40;99.90;;;;;;20893734;28;20529;-50
2021/06/23 08:57:49;;;;;;;3.10;0.60;;;14.40;99.90;;;;;;20903694;28;20137;-50
2021/06/23 09:07:58;;;;;;;1.90;0.63;;;14.50;99.90;;;;;;20652340;28;20975;-51
2021/06/23 09:18:10;;;;;;;1.70;0.70;;;14.40;99.90;;;;;;20761591;28;20033;-50
2021/06/23 09:28:17;;;;;;;6.07;1.45;;;14.30;99.90;;;;;;20897863;28;20436;-50
2021/06/23 09:38:41;;;;;;;1.97;0.83;;;14.50;99.90;;;;;;20887997;28;20092;-50
2021/06/23 09:48:43;;;;;;;1.30;0.73;;;14.60;99.90;;;;;;20891685;28;20405;-50
2021/06/23 09:58:45;;;;;;;4.18;0.80;;;14.70;99.90;;;;;;20887259;28;20049;-51
2021/06/23 10:08:46;;;;;;;3.00;0.80;;;14.70;99.90;;;;;;20907908;28;20040;-51
2021/06/23 10:18:48;;;;;;;3.85;1.15;;;14.90;99.90;;;;;;20912698;28;20049;-50
2021/06/23 10:28:50;;;;;;;4.28;1.10;;;14.90;99.90;;;;;;20912199;28;20033;-50
2021/06/23 10:38:53;;;;;;;6.75;1.00;;;15.10;99.90;;;;;;20904463;28;20044;-50
2021/06/23 10:49:00;;;;;;;1.42;0.52;;;15.30;99.90;;;;;;20889163;28;20415;-51
2021/06/23 10:59:34;;;;;;;2.92;0.80;;;15.60;99.90;;;;;;20901219;28;20405;-50
2021/06/23 11:09:36;;;;;;;1.65;0.60;;;15.90;99.90;;;;;;20911368;28;20049;-48
2021/06/23 11:19:38;;;;;;;1.55;0.70;;;16.10;99.90;;;;;;20912799;28;20045;-50
2021/06/23 11:29:39;;;;;;;7.47;1.13;;;16.80;99.90;;;;;;20923866;28;20049;-48
2021/06/23 11:39:42;;;;;;;1.42;0.50;;;16.60;99.90;;;;;;20931620;28;20048;-48
2021/06/23 11:49:44;;;;;;;1.52;0.80;;;16.60;99.90;;;;;;20908543;28;20443;-48
2021/06/23 11:59:48;;;;;;;1.10;0.57;;;16.80;99.90;;;;;;20907372;28;20103;-49
2021/06/23 12:09:49;;;;;;;1.00;0.57;;;16.80;99.90;;;;;;20896489;28;20056;-49
2021/06/23 12:19:52;;;;;;;2.53;1.55;;;17.10;99.90;;;;;;20883623;28;20049;-49
2021/06/23 12:29:54;;;;;;;1.42;0.63;;;17.00;99.90;;;;;;20905405;28;20140;-49
2021/06/23 12:39:55;;;;;;;2.70;0.77;;;17.30;99.90;;;;;;20909161;28;20082;-48
2021/06/23 12:49:56;;;;;;;2.50;1.10;;;17.50;99.90;;;;;;20910834;28;20052;-49
2021/06/23 12:59:58;;;;;;;1.83;0.82;;;17.60;99.90;;;;;;20908521;28;20151;-48
2021/06/23 13:10:01;;;;;;;1.45;0.40;;;18.00;99.90;;;;;;20897549;28;20067;-48
2021/06/23 13:20:04;;;;;;;1.10;0.57;;;18.40;99.90;;;;;;20898113;28;20118;-49
2021/06/23 13:30:06;;;;;;;2.05;1.08;;;18.20;99.90;;;;;;20885274;28;20159;-49
2021/06/23 13:40:08;;;;;;;4.20;0.80;;;17.90;99.90;;;;;;20899709;28;20060;-48
2021/06/23 13:50:12;;;;;;;1.45;0.52;;;17.70;99.90;;;;;;20898854;28;20057;-48
2021/06/23 14:00:14;;;;;;;2.30;0.50;;;17.90;99.90;;;;;;20888915;28;20045;-48
2021/06/23 14:10:15;;;;;;;1.83;0.68;;;17.90;99.90;;;;;;20900264;28;20496;-49
2021/06/23 14:20:18;;;;;;;1.40;0.38;;;17.90;99.90;;;;;;20898674;28;20048;-49
2021/06/23 14:30:20;;;;;;;2.92;0.70;;;17.70;99.90;;;;;;20883892;28;20037;-48
2021/06/23 14:40:22;;;;;;;2.28;0.55;;;17.40;99.90;;;;;;20892857;28;20045;-48
2021/06/23 14:50:23;;;;;;;2.65;0.60;;;17.70;99.90;;;;;;20904294;28;20195;-48
2021/06/23 15:00:25;;;;;;;2.38;0.60;;;17.70;99.90;;;;;;20903291;28;20062;-49
2021/06/23 15:10:27;;;;;;;1.98;0.82;;;17.70;99.90;;;;;;20885755;28;20045;-49
2021/06/23 15:20:29;;;;;;;3.05;0.70;;;17.80;99.90;;;;;;20901260;28;20469;-50
2021/06/23 15:30:31;;;;;;;1.30;0.60;;;17.30;99.90;;;;;;20913429;28;20049;-49
2021/06/23 15:40:32;;;;;;;1.92;0.70;;;17.20;99.90;;;;;;20652187;28;20049;-50
2021/06/23 15:50:33;;;;;;;1.77;0.60;;;17.40;99.90;;;;;;20740277;28;20086;-50
2021/06/23 16:00:35;;;;;;;2.17;1.27;;;17.20;99.90;;;;;;20899209;28;20052;-49
2021/06/23 16:10:36;;;;;;;5.07;0.73;;;17.10;99.90;;;;;;20904952;28;20116;-50
2021/06/23 16:20:38;;;;;;;1.73;0.85;;;17.10;99.90;;;;;;20897512;28;20146;-49
2021/06/23 16:30:40;;;;;;;2.10;0.80;;;17.10;99.90;;;;;;20901546;28;20797;-49
2021/06/23 16:40:41;;;;;;;1.92;0.68;;;17.00;99.90;;;;;;20903097;28;20186;-49
2021/06/23 16:50:42;;;;;;;3.05;1.42;;;17.00;99.90;;;;;;20906873;28;20144;-49
2021/06/23 17:00:43;;;;;;;3.65;0.68;;;17.10;99.90;;;;;;20889191;28;20053;-49
2021/06/23 17:10:45;;;;;;;2.70;0.93;;;16.90;99.90;;;;;;20878062;28;20056;-50
2021/06/23 17:20:47;;;;;;;2.40;1.35;;;16.90;99.90;;;;;;20890451;28;20056;-49
2021/06/23 17:30:48;;;;;;;1.20;0.70;;;17.00;99.90;;;;;;20890070;28;20049;-49
2021/06/23 17:40:49;;;;;;;2.85;1.02;;;16.90;99.90;;;;;;20897953;28;20235;-49
2021/06/23 17:50:51;;;;;;;2.80;0.80;;;16.70;99.90;;;;;;20890429;28;20064;-49
2021/06/23 18:00:57;;;;;;;1.65;0.80;;;16.60;99.90;;;;;;20893833;28;20051;-49
2021/06/23 18:10:58;;;;;;;2.45;0.98;;;16.70;99.90;;;;;;20534040;28;20164;-49
2021/06/23 18:21:00;;;;;;;2.20;0.80;;;16.60;99.90;;;;;;20419482;28;20606;-49
2021/06/23 18:31:01;;;;;;;2.33;0.73;;;16.60;99.90;;;;;;20427158;28;20061;-49
2021/06/23 18:41:02;;;;;;;3.85;1.45;;;16.50;99.90;;;;;;20437985;28;20426;-49
2021/06/23 18:51:04;;;;;;;1.08;0.60;;;16.50;99.90;;;;;;20435195;28;20045;-48
2021/06/23 19:01:05;;;;;;;2.53;0.55;;;16.50;99.90;;;;;;20443677;28;20948;-49
2021/06/23 19:11:07;;;;;;;2.55;0.80;;;16.10;99.90;;;;;;20834325;28;20045;-49
2021/06/23 19:21:10;;;;;;;1.13;0.50;;;16.20;99.90;;;;;;20911031;28;20049;-49
2021/06/23 19:31:11;;;;;;;2.58;0.80;;;16.10;99.90;;;;;;20905665;28;20056;-50
2021/06/23 19:41:13;;;;;;;2.33;1.00;;;15.90;99.90;;;;;;20898288;28;20314;-49
2021/06/23 19:51:14;;;;;;;2.10;0.68;;;15.90;99.90;;;;;;20905314;28;20052;-49
2021/06/23 20:01:16;;;;;;;1.98;0.70;;;15.90;99.90;;;;;;20905288;28;20047;-49
2021/06/23 20:11:17;;;;;;;8.40;1.05;;;15.70;99.90;;;;;;20590495;28;20858;-49
2021/06/23 20:21:18;;;;;;;2.80;0.82;;;15.70;99.90;;;;;;20434039;28;20098;-49
2021/06/23 20:31:20;;;;;;;1.50;0.73;;;15.70;99.90;;;;;;20424898;28;20045;-49
2021/06/23 20:41:21;;;;;;;2.92;0.80;;;15.80;99.90;;;;;;20426546;28;20167;-49
2021/06/23 20:51:24;;;;;;;1.25;0.60;;;15.80;99.90;;;;;;20419722;28;20040;-49
2021/06/23 21:01:25;;;;;;;1.52;0.68;;;15.50;99.90;;;;;;20650869;28;20075;-49
2021/06/23 21:11:46;;;;;;;1.27;0.55;;;15.60;99.90;;;;;;20909512;28;20041;-49
2021/06/23 21:21:47;;;;;;;1.63;0.60;;;15.70;99.90;;;;;;20917519;28;20135;-49
2021/06/23 21:31:57;;;;;;;3.55;0.90;;;15.60;99.90;;;;;;20900209;28;20456;-50
2021/06/23 21:42:00;;;;;;;3.78;0.50;;;15.60;99.90;;;;;;20906954;28;20056;-49
2021/06/23 21:52:07;;;;;;;4.20;1.10;;;15.70;99.90;;;;;;20898223;28;20072;-49
2021/06/23 22:02:10;;;;;;;5.15;0.93;;;15.60;99.90;;;;;;20895528;28;20127;-50
2021/06/23 22:12:18;;;;;;;2.50;1.05;;;15.60;99.90;;;;;;20910847;28;20044;-49
2021/06/23 22:22:22;;;;;;;2.83;0.75;;;15.60;99.90;;;;;;20905162;28;20083;-50
2021/06/23 22:32:25;;;;;;;3.05;1.23;;;15.40;99.90;;;;;;20897176;28;20345;-50
2021/06/23 22:42:27;;;;;;;3.53;1.02;;;15.50;99.90;;;;;;20885986;28;20044;-49
2021/06/23 23:02:40;;;;;;;1.25;0.60;;;15.30;99.90;;;;;;20896279;28;20048;-49
2021/06/23 23:12:42;;;;;;;1.70;1.00;;;15.20;99.90;;;;;;20915466;28;20119;-49
2021/06/23 23:22:43;;;;;;;2.17;1.02;;;15.30;99.90;;;;;;20909053;28;20052;-49
2021/06/23 23:32:45;;;;;;;1.63;0.70;;;15.20;99.90;;;;;;20911681;28;20260;-50
2021/06/23 23:42:47;;;;;;;3.10;0.90;;;15.10;99.90;;;;;;20911367;28;20059;-49
2021/06/23 23:52:48;;;;;;;2.90;1.10;;;15.10;99.90;;;;;;20892530;28;20044;-50
